Khasavyurt, Russia
Current Conditions -  °F | °C
As of 9:00 PM on Thursday 29 Jan 2015 (Local Time) from URML Reporting Station
Few Clouds Few Clouds  
Wind Chill: 32°   Ceiling: Unl
Heat Index: 36°   Visibility: 6mi
Dew Point: 32°   Wind: 4mph
Humidity: 87%   Direction: 310°NW
Pressure: 30"   Gusts: NA
Location:  43.24°N, 46.58°E
Report Text: URML 291800Z 31002MPS 260V330 9999 FEW100 02/M00 Q1016 NOSIGRMK QFE761/1015 SC070
Loading
Personal Weather Stations






























Interactive Weather Map New forecast layout! Learn more

10-Day Weather Forecast

Advertisements
Track Severe Weather on mobile